sensor_id;sensor_type;location;lat;lon;timestamp;pressure;altitude;pressure_sealevel;temperature
66372;BMP180;53168;51.146;17.120;2023-05-07T00:02:27;100594.40;;;8.60
66372;BMP180;53168;51.146;17.120;2023-05-07T00:05:00;100594.00;;;8.60
66372;BMP180;53168;51.146;17.120;2023-05-07T00:07:34;100591.40;;;8.60
66372;BMP180;53168;51.146;17.120;2023-05-07T00:10:10;100597.40;;;8.60
66372;BMP180;53168;51.146;17.120;2023-05-07T00:12:44;100597.60;;;8.60
66372;BMP180;53168;51.146;17.120;2023-05-07T00:15:17;100594.40;;;8.60
66372;BMP180;53168;51.146;17.120;2023-05-07T00:17:50;100600.40;;;8.60
66372;BMP180;53168;51.146;17.120;2023-05-07T00:20:24;100598.40;;;8.60
66372;BMP180;53168;51.146;17.120;2023-05-07T00:22:57;100599.80;;;8.60
66372;BMP180;53168;51.146;17.120;2023-05-07T00:25:30;100602.40;;;8.60
66372;BMP180;53168;51.146;17.120;2023-05-07T00:28:04;100604.00;;;8.60
66372;BMP180;53168;51.146;17.120;2023-05-07T00:30:37;100601.00;;;8.68
66372;BMP180;53168;51.146;17.120;2023-05-07T00:33:10;100604.60;;;8.60
66372;BMP180;53168;51.146;17.120;2023-05-07T00:35:44;100602.80;;;8.62
66372;BMP180;53168;51.146;17.120;2023-05-07T00:38:17;100605.60;;;8.64
66372;BMP180;53168;51.146;17.120;2023-05-07T00:40:50;100605.40;;;8.70
66372;BMP180;53168;51.146;17.120;2023-05-07T00:43:24;100609.60;;;8.60
66372;BMP180;53168;51.146;17.120;2023-05-07T00:45:57;100610.80;;;8.60
66372;BMP180;53168;51.146;17.120;2023-05-07T00:48:31;100611.20;;;8.60
66372;BMP180;53168;51.146;17.120;2023-05-07T00:51:04;100618.40;;;8.62
66372;BMP180;53168;51.146;17.120;2023-05-07T00:53:38;100616.40;;;8.68
66372;BMP180;53168;51.146;17.120;2023-05-07T00:56:13;100620.20;;;8.66
66372;BMP180;53168;51.146;17.120;2023-05-07T00:58:46;100617.20;;;8.70
66372;BMP180;53168;51.146;17.120;2023-05-07T01:01:23;100621.80;;;8.70
66372;BMP180;53168;51.146;17.120;2023-05-07T01:03:57;100621.80;;;8.70
66372;BMP180;53168;51.146;17.120;2023-05-07T01:06:33;100621.60;;;8.70
66372;BMP180;53168;51.146;17.120;2023-05-07T01:09:07;100619.80;;;8.70
66372;BMP180;53168;51.146;17.120;2023-05-07T01:11:41;100618.80;;;8.66
66372;BMP180;53168;51.146;17.120;2023-05-07T01:14:15;100622.00;;;8.64
66372;BMP180;53168;51.146;17.120;2023-05-07T01:16:48;100622.20;;;8.60
66372;BMP180;53168;51.146;17.120;2023-05-07T01:19:23;100621.40;;;8.60
66372;BMP180;53168;51.146;17.120;2023-05-07T01:22:04;100620.80;;;8.60
66372;BMP180;53168;51.146;17.120;2023-05-07T01:24:43;100616.40;;;8.60
66372;BMP180;53168;51.146;17.120;2023-05-07T01:27:17;100620.20;;;8.60
66372;BMP180;53168;51.146;17.120;2023-05-07T01:29:52;100622.80;;;8.60
66372;BMP180;53168;51.146;17.120;2023-05-07T01:32:40;100618.20;;;8.60
66372;BMP180;53168;51.146;17.120;2023-05-07T01:35:19;100616.20;;;8.60
66372;BMP180;53168;51.146;17.120;2023-05-07T01:37:54;100617.60;;;8.60
66372;BMP180;53168;51.146;17.120;2023-05-07T01:40:28;100618.60;;;8.60
66372;BMP180;53168;51.146;17.120;2023-05-07T01:43:03;100617.40;;;8.56
66372;BMP180;53168;51.146;17.120;2023-05-07T01:45:38;100624.80;;;8.50
66372;BMP180;53168;51.146;17.120;2023-05-07T01:48:13;100626.00;;;8.50
66372;BMP180;53168;51.146;17.120;2023-05-07T01:50:47;100632.40;;;8.50
66372;BMP180;53168;51.146;17.120;2023-05-07T01:53:20;100627.40;;;8.50
66372;BMP180;53168;51.146;17.120;2023-05-07T01:55:54;100624.00;;;8.50
66372;BMP180;53168;51.146;17.120;2023-05-07T01:58:27;100628.60;;;8.50
66372;BMP180;53168;51.146;17.120;2023-05-07T02:01:01;100626.60;;;8.50
66372;BMP180;53168;51.146;17.120;2023-05-07T02:03:34;100629.00;;;8.50
66372;BMP180;53168;51.146;17.120;2023-05-07T02:06:12;100629.20;;;8.50
66372;BMP180;53168;51.146;17.120;2023-05-07T02:08:45;100628.20;;;8.50
66372;BMP180;53168;51.146;17.120;2023-05-07T02:11:19;100635.00;;;8.48
66372;BMP180;53168;51.146;17.120;2023-05-07T02:13:53;100634.40;;;8.50
66372;BMP180;53168;51.146;17.120;2023-05-07T02:16:26;100635.60;;;8.40
66372;BMP180;53168;51.146;17.120;2023-05-07T02:19:00;100638.20;;;8.40
66372;BMP180;53168;51.146;17.120;2023-05-07T02:21:33;100634.00;;;8.40
66372;BMP180;53168;51.146;17.120;2023-05-07T02:24:07;100635.20;;;8.40
66372;BMP180;53168;51.146;17.120;2023-05-07T02:26:40;100629.80;;;8.40
66372;BMP180;53168;51.146;17.120;2023-05-07T02:29:14;100630.00;;;8.40
66372;BMP180;53168;51.146;17.120;2023-05-07T02:31:48;100639.00;;;8.40
66372;BMP180;53168;51.146;17.120;2023-05-07T02:34:23;100637.60;;;8.40
66372;BMP180;53168;51.146;17.120;2023-05-07T02:36:56;100635.00;;;8.40
66372;BMP180;53168;51.146;17.120;2023-05-07T02:39:30;100637.60;;;8.40
66372;BMP180;53168;51.146;17.120;2023-05-07T02:42:06;100640.80;;;8.40
66372;BMP180;53168;51.146;17.120;2023-05-07T02:44:41;100645.00;;;8.40
66372;BMP180;53168;51.146;17.120;2023-05-07T02:47:16;100640.60;;;8.38
66372;BMP180;53168;51.146;17.120;2023-05-07T02:49:49;100646.40;;;8.40
66372;BMP180;53168;51.146;17.120;2023-05-07T02:52:23;100649.80;;;8.40
66372;BMP180;53168;51.146;17.120;2023-05-07T02:54:56;100652.80;;;8.40
66372;BMP180;53168;51.146;17.120;2023-05-07T02:57:29;100652.00;;;8.32
66372;BMP180;53168;51.146;17.120;2023-05-07T03:00:15;100652.20;;;8.30
66372;BMP180;53168;51.146;17.120;2023-05-07T03:02:55;100657.80;;;8.30
66372;BMP180;53168;51.146;17.120;2023-05-07T03:05:29;100654.40;;;8.30
66372;BMP180;53168;51.146;17.120;2023-05-07T03:08:02;100655.00;;;8.30
66372;BMP180;53168;51.146;17.120;2023-05-07T03:10:37;100654.80;;;8.24
66372;BMP180;53168;51.146;17.120;2023-05-07T03:13:10;100658.00;;;8.20
66372;BMP180;53168;51.146;17.120;2023-05-07T03:15:43;100656.20;;;8.20
66372;BMP180;53168;51.146;17.120;2023-05-07T03:18:17;100662.00;;;8.30
66372;BMP180;53168;51.146;17.120;2023-05-07T03:20:51;100662.40;;;8.28
66372;BMP180;53168;51.146;17.120;2023-05-07T03:23:24;100666.40;;;8.20
66372;BMP180;53168;51.146;17.120;2023-05-07T03:25:58;100666.60;;;8.20
66372;BMP180;53168;51.146;17.120;2023-05-07T03:28:31;100670.20;;;8.20
66372;BMP180;53168;51.146;17.120;2023-05-07T03:31:06;100668.60;;;8.20
66372;BMP180;53168;51.146;17.120;2023-05-07T03:33:52;100671.60;;;8.20
66372;BMP180;53168;51.146;17.120;2023-05-07T03:36:27;100676.60;;;8.20
66372;BMP180;53168;51.146;17.120;2023-05-07T03:39:01;100676.40;;;8.20
66372;BMP180;53168;51.146;17.120;2023-05-07T03:41:40;100679.20;;;8.20
66372;BMP180;53168;51.146;17.120;2023-05-07T03:44:14;100678.00;;;8.20
66372;BMP180;53168;51.146;17.120;2023-05-07T03:46:47;100681.80;;;8.20
66372;BMP180;53168;51.146;17.120;2023-05-07T03:49:20;100681.60;;;8.20
66372;BMP180;53168;51.146;17.120;2023-05-07T03:51:53;100681.20;;;8.20
66372;BMP180;53168;51.146;17.120;2023-05-07T03:54:27;100686.80;;;8.20
66372;BMP180;53168;51.146;17.120;2023-05-07T03:57:01;100697.40;;;8.20
66372;BMP180;53168;51.146;17.120;2023-05-07T03:59:34;100696.20;;;8.20
66372;BMP180;53168;51.146;17.120;2023-05-07T04:02:07;100703.00;;;8.20
66372;BMP180;53168;51.146;17.120;2023-05-07T04:04:41;100701.80;;;8.20
66372;BMP180;53168;51.146;17.120;2023-05-07T04:07:14;100709.20;;;8.20
66372;BMP180;53168;51.146;17.120;2023-05-07T04:09:48;100712.00;;;8.20
66372;BMP180;53168;51.146;17.120;2023-05-07T04:12:21;100712.00;;;8.20
66372;BMP180;53168;51.146;17.120;2023-05-07T04:14:54;100717.00;;;8.20
66372;BMP180;53168;51.146;17.120;2023-05-07T04:17:28;100723.80;;;8.20
66372;BMP180;53168;51.146;17.120;2023-05-07T04:20:02;100722.80;;;8.20
66372;BMP180;53168;51.146;17.120;2023-05-07T04:22:35;100728.20;;;8.20
66372;BMP180;53168;51.146;17.120;2023-05-07T04:25:11;100722.60;;;8.20
66372;BMP180;53168;51.146;17.120;2023-05-07T04:27:44;100723.80;;;8.28
66372;BMP180;53168;51.146;17.120;2023-05-07T04:30:18;100726.40;;;8.30
66372;BMP180;53168;51.146;17.120;2023-05-07T04:32:52;100731.00;;;8.40
66372;BMP180;53168;51.146;17.120;2023-05-07T04:35:26;100735.20;;;8.46
66372;BMP180;53168;51.146;17.120;2023-05-07T04:37:59;100740.40;;;8.50
66372;BMP180;53168;51.146;17.120;2023-05-07T04:40:33;100746.00;;;8.60
66372;BMP180;53168;51.146;17.120;2023-05-07T04:43:08;100740.80;;;8.60
66372;BMP180;53168;51.146;17.120;2023-05-07T04:45:47;100736.00;;;8.70
66372;BMP180;53168;51.146;17.120;2023-05-07T04:48:21;100724.20;;;9.06
66372;BMP180;53168;51.146;17.120;2023-05-07T04:50:55;100734.60;;;9.36
66372;BMP180;53168;51.146;17.120;2023-05-07T04:53:29;100744.40;;;9.50
66372;BMP180;53168;51.146;17.120;2023-05-07T04:56:02;100745.40;;;9.44
66372;BMP180;53168;51.146;17.120;2023-05-07T04:58:40;100751.20;;;9.40
66372;BMP180;53168;51.146;17.120;2023-05-07T05:01:13;100751.20;;;9.42
66372;BMP180;53168;51.146;17.120;2023-05-07T05:03:46;100755.00;;;9.40
66372;BMP180;53168;51.146;17.120;2023-05-07T05:06:20;100767.80;;;9.30
66372;BMP180;53168;51.146;17.120;2023-05-07T05:08:54;100767.60;;;9.20
66372;BMP180;53168;51.146;17.120;2023-05-07T05:11:28;100773.80;;;9.10
66372;BMP180;53168;51.146;17.120;2023-05-07T05:14:01;100786.40;;;9.00
66372;BMP180;53168;51.146;17.120;2023-05-07T05:16:35;100779.80;;;8.92
66372;BMP180;53168;51.146;17.120;2023-05-07T05:19:08;100780.60;;;8.90
66372;BMP180;53168;51.146;17.120;2023-05-07T05:21:43;100786.80;;;8.90
66372;BMP180;53168;51.146;17.120;2023-05-07T05:24:16;100787.80;;;8.88
66372;BMP180;53168;51.146;17.120;2023-05-07T05:26:50;100794.00;;;8.80
66372;BMP180;53168;51.146;17.120;2023-05-07T05:29:26;100798.20;;;8.86
66372;BMP180;53168;51.146;17.120;2023-05-07T05:31:59;100794.80;;;8.90
66372;BMP180;53168;51.146;17.120;2023-05-07T05:34:34;100796.60;;;8.90
66372;BMP180;53168;51.146;17.120;2023-05-07T05:37:07;100794.20;;;8.90
66372;BMP180;53168;51.146;17.120;2023-05-07T05:39:41;100801.80;;;8.80
66372;BMP180;53168;51.146;17.120;2023-05-07T05:42:15;100800.60;;;8.80
66372;BMP180;53168;51.146;17.120;2023-05-07T05:44:48;100795.20;;;8.90
66372;BMP180;53168;51.146;17.120;2023-05-07T05:47:21;100790.00;;;9.06
66372;BMP180;53168;51.146;17.120;2023-05-07T05:49:55;100798.60;;;9.20
66372;BMP180;53168;51.146;17.120;2023-05-07T05:52:30;100798.20;;;9.30
66372;BMP180;53168;51.146;17.120;2023-05-07T05:55:04;100799.40;;;9.30
66372;BMP180;53168;51.146;17.120;2023-05-07T05:57:39;100793.40;;;9.30
66372;BMP180;53168;51.146;17.120;2023-05-07T06:00:15;100799.00;;;9.30
66372;BMP180;53168;51.146;17.120;2023-05-07T06:02:51;100799.20;;;9.40
66372;BMP180;53168;51.146;17.120;2023-05-07T06:05:26;100799.40;;;9.40
66372;BMP180;53168;51.146;17.120;2023-05-07T06:08:00;100804.60;;;9.60
66372;BMP180;53168;51.146;17.120;2023-05-07T06:10:37;100813.60;;;9.74
66372;BMP180;53168;51.146;17.120;2023-05-07T06:13:11;100812.60;;;9.70
66372;BMP180;53168;51.146;17.120;2023-05-07T06:15:45;100812.20;;;9.60
66372;BMP180;53168;51.146;17.120;2023-05-07T06:18:18;100816.00;;;9.64
66372;BMP180;53168;51.146;17.120;2023-05-07T06:20:51;100813.20;;;9.64
66372;BMP180;53168;51.146;17.120;2023-05-07T06:23:29;100813.80;;;9.60
66372;BMP180;53168;51.146;17.120;2023-05-07T06:26:04;100817.00;;;9.68
66372;BMP180;53168;51.146;17.120;2023-05-07T06:28:40;100825.20;;;9.60
66372;BMP180;53168;51.146;17.120;2023-05-07T06:34:21;100832.20;;;9.50
66372;BMP180;53168;51.146;17.120;2023-05-07T06:36:55;100834.00;;;9.30
66372;BMP180;53168;51.146;17.120;2023-05-07T06:39:36;100838.20;;;9.20
66372;BMP180;53168;51.146;17.120;2023-05-07T06:42:09;100843.20;;;9.20
66372;BMP180;53168;51.146;17.120;2023-05-07T06:44:45;100848.80;;;9.20
66372;BMP180;53168;51.146;17.120;2023-05-07T06:47:20;100844.80;;;9.18
66372;BMP180;53168;51.146;17.120;2023-05-07T06:49:56;100848.00;;;9.20
66372;BMP180;53168;51.146;17.120;2023-05-07T06:52:31;100846.40;;;9.30
66372;BMP180;53168;51.146;17.120;2023-05-07T06:55:07;100856.80;;;9.48
66372;BMP180;53168;51.146;17.120;2023-05-07T06:57:41;100861.20;;;9.60
66372;BMP180;53168;51.146;17.120;2023-05-07T07:00:19;100865.20;;;9.54
66372;BMP180;53168;51.146;17.120;2023-05-07T08:17:48;100923.00;;;10.40
66372;BMP180;53168;51.146;17.120;2023-05-07T08:20:22;100924.20;;;10.30
66372;BMP180;53168;51.146;17.120;2023-05-07T08:22:56;100929.00;;;10.10
66372;BMP180;53168;51.146;17.120;2023-05-07T08:25:32;100929.60;;;10.00
66372;BMP180;53168;51.146;17.120;2023-05-07T08:28:06;100932.80;;;10.00
66372;BMP180;53168;51.146;17.120;2023-05-07T08:30:42;100936.00;;;9.90
66372;BMP180;53168;51.146;17.120;2023-05-07T08:33:15;100944.60;;;9.80
66372;BMP180;53168;51.146;17.120;2023-05-07T08:35:49;100942.40;;;9.74
66372;BMP180;53168;51.146;17.120;2023-05-07T08:38:22;100943.80;;;9.60
66372;BMP180;53168;51.146;17.120;2023-05-07T08:40:56;100950.20;;;9.50
66372;BMP180;53168;51.146;17.120;2023-05-07T08:43:31;100952.20;;;9.50
66372;BMP180;53168;51.146;17.120;2023-05-07T08:46:07;100956.20;;;9.50
66372;BMP180;53168;51.146;17.120;2023-05-07T08:48:43;100958.60;;;9.50
66372;BMP180;53168;51.146;17.120;2023-05-07T08:51:22;100961.40;;;9.50
66372;BMP180;53168;51.146;17.120;2023-05-07T08:53:56;100963.20;;;9.50
66372;BMP180;53168;51.146;17.120;2023-05-07T08:56:33;100964.00;;;9.54
66372;BMP180;53168;51.146;17.120;2023-05-07T08:59:07;100968.80;;;9.60
66372;BMP180;53168;51.146;17.120;2023-05-07T09:01:40;100969.60;;;9.62
66372;BMP180;53168;51.146;17.120;2023-05-07T09:23:58;100988.00;;;10.16
66372;BMP180;53168;51.146;17.120;2023-05-07T09:26:37;100985.40;;;10.30
66372;BMP180;53168;51.146;17.120;2023-05-07T09:29:13;100980.00;;;10.30
66372;BMP180;53168;51.146;17.120;2023-05-07T09:31:49;100982.00;;;10.40
66372;BMP180;53168;51.146;17.120;2023-05-07T09:34:23;100981.40;;;10.50
66372;BMP180;53168;51.146;17.120;2023-05-07T09:36:58;100969.40;;;10.72
66372;BMP180;53168;51.146;17.120;2023-05-07T09:39:44;100966.80;;;11.10
66372;BMP180;53168;51.146;17.120;2023-05-07T09:42:24;100949.60;;;11.68
66372;BMP180;53168;51.146;17.120;2023-05-07T09:45:01;100972.00;;;12.08
66372;BMP180;53168;51.146;17.120;2023-05-07T09:47:43;100977.80;;;11.70
66372;BMP180;53168;51.146;17.120;2023-05-07T09:50:19;100967.20;;;11.50
66372;BMP180;53168;51.146;17.120;2023-05-07T09:52:56;100955.20;;;11.92
66372;BMP180;53168;51.146;17.120;2023-05-07T09:55:30;100965.40;;;12.24
66372;BMP180;53168;51.146;17.120;2023-05-07T09:58:05;100962.80;;;12.40
66372;BMP180;53168;51.146;17.120;2023-05-07T10:00:41;100966.60;;;12.50
66372;BMP180;53168;51.146;17.120;2023-05-07T10:03:16;100965.00;;;12.58
66372;BMP180;53168;51.146;17.120;2023-05-07T10:06:01;100963.40;;;12.70
66372;BMP180;53168;51.146;17.120;2023-05-07T10:08:38;100968.60;;;12.80
66372;BMP180;53168;51.146;17.120;2023-05-07T10:11:12;100982.00;;;12.80
66372;BMP180;53168;51.146;17.120;2023-05-07T10:13:49;100975.60;;;12.68
66372;BMP180;53168;51.146;17.120;2023-05-07T10:16:23;100979.20;;;12.50
66372;BMP180;53168;51.146;17.120;2023-05-07T10:19:00;100980.20;;;12.50
66372;BMP180;53168;51.146;17.120;2023-05-07T10:21:39;100981.60;;;12.60
66372;BMP180;53168;51.146;17.120;2023-05-07T10:24:19;100987.80;;;12.60
66372;BMP180;53168;51.146;17.120;2023-05-07T10:26:54;100986.40;;;12.60
66372;BMP180;53168;51.146;17.120;2023-05-07T10:29:36;100993.60;;;12.70
66372;BMP180;53168;51.146;17.120;2023-05-07T10:32:33;100988.80;;;12.60
66372;BMP180;53168;51.146;17.120;2023-05-07T10:35:17;100989.20;;;12.60
66372;BMP180;53168;51.146;17.120;2023-05-07T10:37:53;100989.60;;;12.70
66372;BMP180;53168;51.146;17.120;2023-05-07T10:40:28;100986.00;;;12.70
66372;BMP180;53168;51.146;17.120;2023-05-07T10:43:04;100992.00;;;12.80
66372;BMP180;53168;51.146;17.120;2023-05-07T10:46:13;100991.80;;;12.80
66372;BMP180;53168;51.146;17.120;2023-05-07T10:49:11;100989.80;;;12.70
66372;BMP180;53168;51.146;17.120;2023-05-07T10:52:19;100995.40;;;12.40
66372;BMP180;53168;51.146;17.120;2023-05-07T10:55:26;100996.60;;;12.30
66372;BMP180;53168;51.146;17.120;2023-05-07T10:58:27;100994.80;;;12.24
66372;BMP180;53168;51.146;17.120;2023-05-07T11:01:53;100997.20;;;12.00
66372;BMP180;53168;51.146;17.120;2023-05-07T11:04:33;100994.60;;;12.10
66372;BMP180;53168;51.146;17.120;2023-05-07T11:07:33;100991.20;;;12.20
66372;BMP180;53168;51.146;17.120;2023-05-07T11:10:11;100995.60;;;12.30
66372;BMP180;53168;51.146;17.120;2023-05-07T11:13:02;100996.00;;;12.20
66372;BMP180;53168;51.146;17.120;2023-05-07T11:15:46;100992.40;;;12.08
66372;BMP180;53168;51.146;17.120;2023-05-07T11:18:50;101003.80;;;11.90
66372;BMP180;53168;51.146;17.120;2023-05-07T11:21:39;101001.60;;;11.80
66372;BMP180;53168;51.146;17.120;2023-05-07T11:24:28;100999.80;;;11.80
66372;BMP180;53168;51.146;17.120;2023-05-07T11:27:05;100993.80;;;12.04
66372;BMP180;53168;51.146;17.120;2023-05-07T11:29:38;100992.00;;;12.50
66372;BMP180;53168;51.146;17.120;2023-05-07T11:32:15;101007.20;;;12.80
66372;BMP180;53168;51.146;17.120;2023-05-07T11:34:56;101022.40;;;12.60
66372;BMP180;53168;51.146;17.120;2023-05-07T11:37:30;101023.80;;;12.40
66372;BMP180;53168;51.146;17.120;2023-05-07T11:40:10;101029.00;;;12.18
66372;BMP180;53168;51.146;17.120;2023-05-07T11:42:46;101031.20;;;12.00
66372;BMP180;53168;51.146;17.120;2023-05-07T11:45:25;101029.60;;;11.90
66372;BMP180;53168;51.146;17.120;2023-05-07T11:47:59;101028.60;;;11.90
66372;BMP180;53168;51.146;17.120;2023-05-07T11:50:34;101031.60;;;12.00
66372;BMP180;53168;51.146;17.120;2023-05-07T11:53:11;101031.40;;;12.08
66372;BMP180;53168;51.146;17.120;2023-05-07T11:55:45;101039.60;;;12.22
66372;BMP180;53168;51.146;17.120;2023-05-07T11:58:24;101045.20;;;12.30
66372;BMP180;53168;51.146;17.120;2023-05-07T12:00:58;101059.80;;;12.10
66372;BMP180;53168;51.146;17.120;2023-05-07T12:03:31;101051.40;;;11.90
66372;BMP180;53168;51.146;17.120;2023-05-07T12:06:09;101047.20;;;11.90
66372;BMP180;53168;51.146;17.120;2023-05-07T12:08:44;101042.40;;;12.08
66372;BMP180;53168;51.146;17.120;2023-05-07T12:11:25;101047.20;;;12.30
66372;BMP180;53168;51.146;17.120;2023-05-07T12:13:58;101048.60;;;12.30
66372;BMP180;53168;51.146;17.120;2023-05-07T12:16:33;101045.80;;;12.20
66372;BMP180;53168;51.146;17.120;2023-05-07T12:19:07;101052.00;;;12.20
66372;BMP180;53168;51.146;17.120;2023-05-07T12:21:47;101047.00;;;12.20
66372;BMP180;53168;51.146;17.120;2023-05-07T12:24:20;101050.80;;;12.18
66372;BMP180;53168;51.146;17.120;2023-05-07T12:26:54;101058.20;;;12.00
66372;BMP180;53168;51.146;17.120;2023-05-07T12:29:28;101060.40;;;11.80
66372;BMP180;53168;51.146;17.120;2023-05-07T12:32:02;101064.00;;;11.80
66372;BMP180;53168;51.146;17.120;2023-05-07T12:34:38;101068.40;;;11.78
66372;BMP180;53168;51.146;17.120;2023-05-07T12:37:16;101073.20;;;11.70
66372;BMP180;53168;51.146;17.120;2023-05-07T12:40:05;101065.20;;;11.70
66372;BMP180;53168;51.146;17.120;2023-05-07T12:42:41;101065.80;;;11.80
66372;BMP180;53168;51.146;17.120;2023-05-07T12:45:18;101065.80;;;11.90
66372;BMP180;53168;51.146;17.120;2023-05-07T12:48:24;101069.40;;;12.00
66372;BMP180;53168;51.146;17.120;2023-05-07T12:51:00;101073.60;;;11.90
66372;BMP180;53168;51.146;17.120;2023-05-07T12:53:33;101077.00;;;11.70
66372;BMP180;53168;51.146;17.120;2023-05-07T12:56:12;101078.40;;;11.50
66372;BMP180;53168;51.146;17.120;2023-05-07T12:58:51;101070.80;;;11.38
66372;BMP180;53168;51.146;17.120;2023-05-07T13:01:30;101071.80;;;11.30
66372;BMP180;53168;51.146;17.120;2023-05-07T13:04:06;101074.00;;;11.40
66372;BMP180;53168;51.146;17.120;2023-05-07T13:06:39;101083.80;;;11.50
66372;BMP180;53168;51.146;17.120;2023-05-07T13:09:12;101079.20;;;11.58
66372;BMP180;53168;51.146;17.120;2023-05-07T13:11:45;101087.60;;;11.60
66372;BMP180;53168;51.146;17.120;2023-05-07T13:14:19;101087.00;;;11.52
66372;BMP180;53168;51.146;17.120;2023-05-07T13:16:53;101096.40;;;11.44
66372;BMP180;53168;51.146;17.120;2023-05-07T13:19:26;101098.40;;;11.30
66372;BMP180;53168;51.146;17.120;2023-05-07T13:22:02;101096.80;;;11.24
66372;BMP180;53168;51.146;17.120;2023-05-07T13:24:35;101093.60;;;11.30
66372;BMP180;53168;51.146;17.120;2023-05-07T13:27:08;101092.80;;;11.40
66372;BMP180;53168;51.146;17.120;2023-05-07T13:29:41;101097.00;;;11.60
66372;BMP180;53168;51.146;17.120;2023-05-07T13:32:15;101105.60;;;11.68
66372;BMP180;53168;51.146;17.120;2023-05-07T13:34:48;101114.40;;;11.60
66372;BMP180;53168;51.146;17.120;2023-05-07T13:37:21;101114.20;;;11.44
66372;BMP180;53168;51.146;17.120;2023-05-07T13:39:55;101114.80;;;11.30
66372;BMP180;53168;51.146;17.120;2023-05-07T13:42:28;101118.00;;;11.20
66372;BMP180;53168;51.146;17.120;2023-05-07T13:45:01;101115.40;;;11.20
66372;BMP180;53168;51.146;17.120;2023-05-07T13:47:36;101112.60;;;11.20
66372;BMP180;53168;51.146;17.120;2023-05-07T13:50:14;101117.60;;;11.20
66372;BMP180;53168;51.146;17.120;2023-05-07T13:52:48;101120.60;;;11.20
66372;BMP180;53168;51.146;17.120;2023-05-07T13:55:23;101117.20;;;11.20
66372;BMP180;53168;51.146;17.120;2023-05-07T13:58:01;101120.60;;;11.10
66372;BMP180;53168;51.146;17.120;2023-05-07T14:00:38;101113.20;;;11.00
66372;BMP180;53168;51.146;17.120;2023-05-07T14:03:11;101114.20;;;10.90
66372;BMP180;53168;51.146;17.120;2023-05-07T14:05:45;101114.80;;;10.90
66372;BMP180;53168;51.146;17.120;2023-05-07T14:08:21;101114.80;;;10.90
66372;BMP180;53168;51.146;17.120;2023-05-07T14:10:55;101119.80;;;10.82
66372;BMP180;53168;51.146;17.120;2023-05-07T14:13:28;101122.20;;;10.80
66372;BMP180;53168;51.146;17.120;2023-05-07T14:16:03;101128.40;;;10.70
66372;BMP180;53168;51.146;17.120;2023-05-07T14:18:37;101119.00;;;10.62
66372;BMP180;53168;51.146;17.120;2023-05-07T14:21:10;101118.60;;;10.70
66372;BMP180;53168;51.146;17.120;2023-05-07T14:23:44;101112.80;;;10.70
66372;BMP180;53168;51.146;17.120;2023-05-07T14:26:17;101116.40;;;10.80
66372;BMP180;53168;51.146;17.120;2023-05-07T14:28:50;101108.40;;;10.80
66372;BMP180;53168;51.146;17.120;2023-05-07T14:31:24;101107.40;;;10.90
66372;BMP180;53168;51.146;17.120;2023-05-07T14:33:57;101106.20;;;11.06
66372;BMP180;53168;51.146;17.120;2023-05-07T14:36:31;101113.40;;;11.20
66372;BMP180;53168;51.146;17.120;2023-05-07T14:39:04;101113.80;;;11.20
66372;BMP180;53168;51.146;17.120;2023-05-07T14:41:38;101118.20;;;11.20
66372;BMP180;53168;51.146;17.120;2023-05-07T14:44:11;101124.00;;;11.18
66372;BMP180;53168;51.146;17.120;2023-05-07T14:46:44;101116.20;;;11.10
66372;BMP180;53168;51.146;17.120;2023-05-07T14:49:18;101121.60;;;11.08
66372;BMP180;53168;51.146;17.120;2023-05-07T14:51:51;101119.60;;;11.10
66372;BMP180;53168;51.146;17.120;2023-05-07T14:54:24;101128.60;;;11.10
66372;BMP180;53168;51.146;17.120;2023-05-07T14:56:58;101123.80;;;11.08
66372;BMP180;53168;51.146;17.120;2023-05-07T14:59:31;101131.00;;;11.00
66372;BMP180;53168;51.146;17.120;2023-05-07T15:02:05;101129.40;;;11.00
66372;BMP180;53168;51.146;17.120;2023-05-07T15:04:41;101129.20;;;10.94
66372;BMP180;53168;51.146;17.120;2023-05-07T15:07:18;101123.00;;;10.90
66372;BMP180;53168;51.146;17.120;2023-05-07T15:09:51;101123.80;;;11.00
66372;BMP180;53168;51.146;17.120;2023-05-07T15:12:24;101125.20;;;11.00
66372;BMP180;53168;51.146;17.120;2023-05-07T15:14:57;101123.80;;;11.10
66372;BMP180;53168;51.146;17.120;2023-05-07T15:17:31;101137.40;;;11.16
66372;BMP180;53168;51.146;17.120;2023-05-07T15:20:06;101134.00;;;11.20
66372;BMP180;53168;51.146;17.120;2023-05-07T15:22:39;101129.60;;;11.10
66372;BMP180;53168;51.146;17.120;2023-05-07T15:25:14;101132.20;;;11.10
66372;BMP180;53168;51.146;17.120;2023-05-07T15:27:48;101144.20;;;11.10
66372;BMP180;53168;51.146;17.120;2023-05-07T15:30:22;101141.80;;;11.10
66372;BMP180;53168;51.146;17.120;2023-05-07T15:32:55;101145.80;;;11.00
66372;BMP180;53168;51.146;17.120;2023-05-07T15:35:29;101143.40;;;11.00
66372;BMP180;53168;51.146;17.120;2023-05-07T15:38:02;101144.20;;;10.90
66372;BMP180;53168;51.146;17.120;2023-05-07T15:40:35;101149.60;;;10.88
66372;BMP180;53168;51.146;17.120;2023-05-07T15:43:14;101145.20;;;10.78
66372;BMP180;53168;51.146;17.120;2023-05-07T15:45:47;101150.00;;;10.62
66372;BMP180;53168;51.146;17.120;2023-05-07T15:48:20;101145.40;;;10.60
66372;BMP180;53168;51.146;17.120;2023-05-07T15:50:54;101141.60;;;10.50
66372;BMP180;53168;51.146;17.120;2023-05-07T15:53:27;101140.40;;;10.50
66372;BMP180;53168;51.146;17.120;2023-05-07T15:56:00;101142.40;;;10.50
66372;BMP180;53168;51.146;17.120;2023-05-07T15:58:33;101134.80;;;10.50
66372;BMP180;53168;51.146;17.120;2023-05-07T16:01:08;101137.60;;;10.54
66372;BMP180;53168;51.146;17.120;2023-05-07T16:03:42;101133.40;;;10.60
66372;BMP180;53168;51.146;17.120;2023-05-07T16:06:16;101137.80;;;10.70
66372;BMP180;53168;51.146;17.120;2023-05-07T16:08:49;101137.00;;;10.70
66372;BMP180;53168;51.146;17.120;2023-05-07T16:11:22;101133.60;;;10.80
66372;BMP180;53168;51.146;17.120;2023-05-07T16:13:55;101139.80;;;10.80
66372;BMP180;53168;51.146;17.120;2023-05-07T16:16:33;101145.80;;;10.76
66372;BMP180;53168;51.146;17.120;2023-05-07T16:19:07;101146.80;;;10.70